createdAt,value
2022-10-31T00:00:49.725Z,19.8
2022-10-31T00:02:49.888Z,19.8
2022-10-31T00:04:49.975Z,16.0
2022-10-31T00:06:49.816Z,18.9
2022-10-31T00:08:50.184Z,18.0
2022-10-31T00:10:50.493Z,18.2
2022-10-31T00:12:49.916Z,17.7
2022-10-31T00:14:50.284Z,17.7
2022-10-31T00:16:50.048Z,15.7
2022-10-31T00:18:50.357Z,14.8
2022-10-31T00:20:49.669Z,14.8
2022-10-31T00:22:50.122Z,16.3
2022-10-31T00:24:50.421Z,16.1
2022-10-31T00:26:50.232Z,15.8
2022-10-31T00:28:49.685Z,15.1
2022-10-31T00:30:50.119Z,15.1
2022-10-31T00:32:49.653Z,20.4
2022-10-31T00:34:49.680Z,14.2
2022-10-31T00:36:50.468Z,16.3
2022-10-31T00:38:49.873Z,16.2
2022-10-31T00:40:50.273Z,16.2
2022-10-31T00:42:49.775Z,14.8
2022-10-31T00:44:50.502Z,16.5
2022-10-31T00:46:50.366Z,17.6
2022-10-31T00:48:49.846Z,16.6
2022-10-31T00:50:50.127Z,16.6
2022-10-31T00:52:49.676Z,15.6
2022-10-31T00:54:50.064Z,18.9
2022-10-31T00:56:49.873Z,15.4
2022-10-31T00:58:50.320Z,17.5
2022-10-31T01:00:51.080Z,17.5
2022-10-31T01:02:49.824Z,15.7
2022-10-31T01:04:49.859Z,20.3
2022-10-31T01:06:49.707Z,20.3
2022-10-31T01:08:50.130Z,15.8
2022-10-31T01:10:50.507Z,18.7
2022-10-31T01:12:49.996Z,19.5
2022-10-31T01:14:50.404Z,21.5
2022-10-31T01:16:50.124Z,18.8
2022-10-31T01:18:50.547Z,14.1
2022-10-31T01:20:49.932Z,14.1
2022-10-31T01:22:49.542Z,15.9
2022-10-31T01:24:50.184Z,17.9
2022-10-31T01:26:50.016Z,17.9
2022-10-31T01:28:49.566Z,19.3
2022-10-31T01:30:50.171Z,19.3
2022-10-31T01:32:50.090Z,21.1
2022-10-31T01:34:50.117Z,13.9
2022-10-31T01:36:49.990Z,17.1
2022-10-31T01:38:50.455Z,17.1
2022-10-31T01:40:50.008Z,17.1
2022-10-31T01:42:50.532Z,16.3
2022-10-31T01:44:50.155Z,15.2
2022-10-31T01:46:49.993Z,15.2
2022-10-31T01:48:50.545Z,16.9
2022-10-31T01:50:50.085Z,16.9
2022-10-31T01:52:49.645Z,15.4
2022-10-31T01:54:49.958Z,18.8
2022-10-31T01:56:49.767Z,18.8
2022-10-31T01:58:50.285Z,19.4
2022-10-31T02:00:49.902Z,19.4
2022-10-31T02:02:49.717Z,19.4
2022-10-31T02:04:50.353Z,19.4
2022-10-31T02:06:50.141Z,19.4
2022-10-31T02:08:49.996Z,46.6
2022-10-31T02:10:50.464Z,46.6
2022-10-31T02:12:49.903Z,38.9
2022-10-31T02:14:50.332Z,38.9
2022-10-31T02:16:50.084Z,24.1
2022-10-31T02:18:49.650Z,24.1
2022-10-31T02:20:50.106Z,24.1
2022-10-31T02:22:49.608Z,22.9
2022-10-31T02:24:50.024Z,24.7
2022-10-31T02:26:49.852Z,31.1
2022-10-31T02:28:50.347Z,31.1
2022-10-31T02:30:49.784Z,30.6
2022-10-31T02:32:50.282Z,27.3
2022-10-31T02:34:50.051Z,23.4
2022-10-31T02:36:49.982Z,23.4
2022-10-31T02:38:50.472Z,26.9
2022-10-31T02:40:49.960Z,21.4
2022-10-31T02:42:50.439Z,24.4
2022-10-31T02:44:49.815Z,25.6
2022-10-31T02:46:49.552Z,25.6
2022-10-31T02:48:50.087Z,33.4
2022-10-31T02:50:50.499Z,35.9
2022-10-31T02:52:49.855Z,28.8
2022-10-31T02:54:50.360Z,29.9
2022-10-31T02:56:50.127Z,29.9
2022-10-31T02:58:49.626Z,57.8
2022-10-31T03:00:51.294Z,35.9
2022-10-31T03:02:50.304Z,48.7
2022-10-31T03:04:50.001Z,48.7
2022-10-31T03:06:49.756Z,48.7
2022-10-31T03:08:49.934Z,32.0
2022-10-31T03:10:50.282Z,35.3
2022-10-31T03:12:49.718Z,29.2
2022-10-31T03:14:50.077Z,29.2
2022-10-31T03:16:49.869Z,32.8
2022-10-31T03:18:50.241Z,24.1
2022-10-31T03:20:49.548Z,19.7
2022-10-31T03:22:50.123Z,24.2
2022-10-31T03:24:50.499Z,24.2
2022-10-31T03:26:50.269Z,23.9
2022-10-31T03:28:49.702Z,26.3
2022-10-31T03:30:50.005Z,20.9
2022-10-31T03:32:50.481Z,22.0
2022-10-31T03:34:50.330Z,22.6
2022-10-31T03:36:50.093Z,22.6
2022-10-31T03:38:50.438Z,25.4
2022-10-31T03:40:49.738Z,23.0
2022-10-31T03:42:50.192Z,21.8
2022-10-31T03:44:49.594Z,21.8
2022-10-31T03:46:50.260Z,25.0
2022-10-31T03:48:49.723Z,22.9
2022-10-31T03:50:50.061Z,27.3
2022-10-31T03:52:50.507Z,27.3
2022-10-31T03:54:49.785Z,26.0
2022-10-31T03:56:50.395Z,23.3
2022-10-31T03:58:49.890Z,23.4
2022-10-31T04:00:50.297Z,23.4
2022-10-31T04:02:49.706Z,19.6
2022-10-31T04:04:49.689Z,19.6
2022-10-31T04:06:50.393Z,17.5
2022-10-31T04:08:49.869Z,21.2
2022-10-31T04:10:50.229Z,21.2
2022-10-31T04:12:49.712Z,16.2
2022-10-31T04:14:50.068Z,16.2
2022-10-31T04:16:49.768Z,15.4
2022-10-31T04:18:50.129Z,20.1
2022-10-31T04:20:50.488Z,20.1
2022-10-31T04:22:49.876Z,20.3
2022-10-31T04:24:50.287Z,20.3
2022-10-31T04:26:49.975Z,17.3
2022-10-31T04:28:50.465Z,20.1
2022-10-31T04:30:49.891Z,20.2
2022-10-31T04:32:50.271Z,20.2
2022-10-31T04:34:50.202Z,27.9
2022-10-31T04:36:50.001Z,26.7
2022-10-31T04:38:50.357Z,26.7
2022-10-31T04:40:49.729Z,23.7
2022-10-31T04:42:50.172Z,23.7
2022-10-31T04:44:50.628Z,24.2
2022-10-31T04:46:50.396Z,24.9
2022-10-31T04:48:49.779Z,25.4
2022-10-31T04:50:50.110Z,20.8
2022-10-31T04:52:50.565Z,20.8
2022-10-31T04:54:49.903Z,14.9
2022-10-31T04:56:50.531Z,15.4
2022-10-31T04:58:50.053Z,17.4
2022-10-31T05:00:50.548Z,17.4
2022-10-31T05:02:50.269Z,16.3
2022-10-31T05:04:50.114Z,14.4
2022-10-31T05:06:49.894Z,17.0
2022-10-31T05:08:50.359Z,16.3
2022-10-31T05:10:49.745Z,16.3
2022-10-31T05:12:50.224Z,17.8
2022-10-31T05:14:49.607Z,18.6
2022-10-31T05:16:50.393Z,21.6
2022-10-31T05:18:49.827Z,21.6
2022-10-31T05:20:50.324Z,18.0
2022-10-31T05:22:49.792Z,19.2
2022-10-31T05:24:50.131Z,18.1
2022-10-31T05:26:49.843Z,22.5
2022-10-31T05:28:50.280Z,20.7
2022-10-31T05:30:49.660Z,20.7
2022-10-31T05:32:50.001Z,20.8
2022-10-31T05:34:49.829Z,27.1
2022-10-31T05:36:50.392Z,28.1
2022-10-31T05:38:49.831Z,28.1
2022-10-31T05:40:50.228Z,25.1
2022-10-31T05:42:49.727Z,31.2
2022-10-31T05:44:50.166Z,22.8
2022-10-31T05:46:49.775Z,22.8
2022-10-31T05:48:50.255Z,19.8
2022-10-31T05:50:49.589Z,19.8
2022-10-31T05:52:49.907Z,23.9
2022-10-31T05:54:50.387Z,21.1
2022-10-31T05:56:50.076Z,21.1
2022-10-31T05:58:49.552Z,20.1
2022-10-31T06:00:49.827Z,20.4
2022-10-31T06:02:50.083Z,20.4
2022-10-31T06:04:49.797Z,18.9
2022-10-31T06:06:50.225Z,19.2
2022-10-31T06:08:49.598Z,19.2
2022-10-31T06:10:49.959Z,19.2
2022-10-31T06:12:50.306Z,18.6
2022-10-31T06:14:49.804Z,20.2
2022-10-31T06:16:49.622Z,20.2
2022-10-31T06:18:50.119Z,17.9
2022-10-31T06:20:50.433Z,20.1
2022-10-31T06:22:49.799Z,16.7
2022-10-31T06:24:50.265Z,19.1
2022-10-31T06:26:49.952Z,19.1
2022-10-31T06:28:50.269Z,22.6
2022-10-31T06:30:49.712Z,19.8
2022-10-31T06:32:50.162Z,22.5
2022-10-31T06:34:50.037Z,22.5
2022-10-31T06:36:49.879Z,27.9
2022-10-31T06:38:50.360Z,27.9
2022-10-31T06:40:49.738Z,21.8
2022-10-31T06:42:50.025Z,20.3
2022-10-31T06:44:49.589Z,20.3
2022-10-31T06:46:50.338Z,22.2
2022-10-31T06:48:49.764Z,22.2
2022-10-31T06:50:50.087Z,19.0
2022-10-31T06:52:50.415Z,17.2
2022-10-31T06:54:49.801Z,17.5
2022-10-31T06:56:50.569Z,17.5
2022-10-31T06:58:50.012Z,16.0
2022-10-31T07:00:50.355Z,17.3
2022-10-31T07:02:49.882Z,16.8
2022-10-31T07:04:49.856Z,13.1
2022-10-31T07:06:51.821Z,13.1
2022-10-31T07:08:49.597Z,12.5
2022-10-31T07:10:49.903Z,15.9
2022-10-31T07:12:50.265Z,46.0
2022-10-31T07:14:49.676Z,46.0
2022-10-31T07:16:50.508Z,60.8
2022-10-31T07:18:49.972Z,67.5
2022-10-31T07:20:50.411Z,67.5
2022-10-31T07:22:50.790Z,66.4
2022-10-31T07:24:50.358Z,66.4
2022-10-31T07:26:50.205Z,54.0
2022-10-31T07:28:49.856Z,49.6
2022-10-31T07:30:50.328Z,46.0
2022-10-31T07:32:49.696Z,46.0
2022-10-31T07:34:49.632Z,44.8
2022-10-31T07:36:50.264Z,40.3
2022-10-31T07:38:49.683Z,39.5
2022-10-31T07:40:50.133Z,35.8
2022-10-31T07:42:49.576Z,31.5
2022-10-31T07:44:51.441Z,31.5
2022-10-31T07:46:50.377Z,32.7
2022-10-31T07:48:49.844Z,22.4
2022-10-31T07:50:50.180Z,25.1
2022-10-31T07:52:49.625Z,25.1
2022-10-31T07:54:50.178Z,17.3
2022-10-31T07:56:50.041Z,26.5
2022-10-31T07:58:50.540Z,21.9
2022-10-31T08:00:49.979Z,17.1
2022-10-31T08:02:50.200Z,13.4
2022-10-31T08:04:50.000Z,13.4
2022-10-31T08:06:49.733Z,20.8
2022-10-31T08:08:50.145Z,17.3
2022-10-31T08:10:49.700Z,15.1
2022-10-31T08:12:50.196Z,20.9
2022-10-31T08:14:49.579Z,20.9
2022-10-31T08:16:50.185Z,22.3
2022-10-31T08:18:49.636Z,21.7
2022-10-31T08:20:50.000Z,21.7
2022-10-31T08:22:49.275Z,23.4
2022-10-31T08:24:49.574Z,23.4
2022-10-31T08:26:50.276Z,29.4
2022-10-31T08:28:49.789Z,37.0
2022-10-31T08:30:50.181Z,37.0
2022-10-31T08:32:49.557Z,26.5
2022-10-31T08:34:50.385Z,26.5
2022-10-31T08:36:50.177Z,32.5
2022-10-31T08:38:49.601Z,17.2
2022-10-31T08:40:49.926Z,21.4
2022-10-31T08:42:50.463Z,21.4
2022-10-31T08:44:49.892Z,21.5
2022-10-31T08:46:49.612Z,22.2
2022-10-31T08:48:50.027Z,22.2
2022-10-31T08:50:50.441Z,16.9
2022-10-31T08:53:03.368Z,16.9
2022-10-31T08:54:50.418Z,16.4
2022-10-31T08:56:50.167Z,23.6
2022-10-31T08:58:49.635Z,23.6
2022-10-31T09:00:50.031Z,14.0
2022-10-31T09:02:50.021Z,14.0
2022-10-31T09:04:49.740Z,14.3
2022-10-31T09:07:19.491Z,13.7
2022-10-31T09:08:49.588Z,13.7
2022-10-31T09:10:49.889Z,13.1
2022-10-31T09:12:50.335Z,13.1
2022-10-31T09:14:49.628Z,57.0
2022-10-31T09:16:50.276Z,13.3
2022-10-31T09:18:49.682Z,10.4
2022-10-31T09:20:50.005Z,16.1
2022-10-31T09:22:50.319Z,16.1
2022-10-31T09:24:49.839Z,9.1
2022-10-31T09:26:50.515Z,9.4
2022-10-31T09:28:50.048Z,9.4
2022-10-31T09:30:50.459Z,8.5
2022-10-31T09:32:49.882Z,8.6
2022-10-31T09:34:49.768Z,8.1
2022-10-31T09:36:49.582Z,8.1
2022-10-31T09:38:49.935Z,8.1
2022-10-31T09:40:50.287Z,8.1
2022-10-31T09:42:49.719Z,8.0
2022-10-31T09:44:50.007Z,7.9
2022-10-31T09:46:49.893Z,7.8
2022-10-31T09:48:50.368Z,7.8
2022-10-31T09:50:49.790Z,7.5
2022-10-31T09:52:50.216Z,7.5
2022-10-31T09:54:49.598Z,7.8
2022-10-31T09:56:50.319Z,7.6
2022-10-31T09:58:49.667Z,7.8
2022-10-31T10:00:50.044Z,7.8
2022-10-31T10:02:49.911Z,7.9
2022-10-31T10:04:49.875Z,8.5
2022-10-31T10:06:49.646Z,7.9
2022-10-31T10:08:49.911Z,7.9
2022-10-31T10:10:50.228Z,8.1
2022-10-31T10:12:49.673Z,8.5
2022-10-31T10:14:50.030Z,8.3
2022-10-31T10:16:49.745Z,8.3
2022-10-31T10:18:50.049Z,9.5
2022-10-31T10:20:50.382Z,8.7
2022-10-31T10:22:49.874Z,10.7
2022-10-31T10:24:50.155Z,9.0
2022-10-31T10:26:49.740Z,9.0
2022-10-31T10:28:50.255Z,9.3
2022-10-31T10:30:49.691Z,9.3
2022-10-31T10:32:51.141Z,10.8
2022-10-31T10:34:50.130Z,10.8
2022-10-31T10:36:49.809Z,10.6
2022-10-31T10:38:50.082Z,10.6
2022-10-31T10:40:50.408Z,12.3
2022-10-31T10:42:49.894Z,11.0
2022-10-31T10:44:50.202Z,10.8
2022-10-31T10:46:49.949Z,10.8
2022-10-31T10:48:50.271Z,12.7
2022-10-31T10:50:49.625Z,13.7
2022-10-31T10:52:51.002Z,13.3
2022-10-31T10:54:49.561Z,13.3
2022-10-31T10:56:50.156Z,11.3
2022-10-31T10:58:49.864Z,11.3
2022-10-31T11:00:50.404Z,11.3
2022-10-31T11:02:49.983Z,12.8
2022-10-31T11:04:49.845Z,12.8
2022-10-31T11:06:50.425Z,12.1
2022-10-31T11:08:49.893Z,10.7
2022-10-31T11:10:50.236Z,13.7
2022-10-31T11:12:49.672Z,10.2
2022-10-31T11:14:50.021Z,10.2
2022-10-31T11:16:49.765Z,12.0
2022-10-31T11:18:50.071Z,12.0
2022-10-31T11:20:50.431Z,10.9
2022-10-31T11:22:49.948Z,10.9
2022-10-31T11:24:50.362Z,10.5
2022-10-31T11:26:50.267Z,10.6
2022-10-31T11:28:49.737Z,14.6
2022-10-31T11:30:50.112Z,8.3
2022-10-31T11:32:50.524Z,8.3
2022-10-31T11:34:50.310Z,9.2
2022-10-31T11:36:50.196Z,9.2
2022-10-31T11:38:49.591Z,8.3
2022-10-31T11:40:49.891Z,9.8
2022-10-31T11:42:50.372Z,9.8
2022-10-31T11:44:49.815Z,9.3
2022-10-31T11:46:49.658Z,9.3
2022-10-31T11:48:49.914Z,10.6
2022-10-31T11:50:50.287Z,8.1
2022-10-31T11:52:49.891Z,8.5
2022-10-31T11:54:50.512Z,8.5
2022-10-31T11:56:50.010Z,11.8
2022-10-31T11:58:50.398Z,9.2
2022-10-31T12:00:49.699Z,9.5
2022-10-31T12:02:50.089Z,9.2
2022-10-31T12:04:50.231Z,9.2
2022-10-31T12:06:49.947Z,9.8
2022-10-31T12:08:50.363Z,11.0
2022-10-31T12:10:49.731Z,11.8
2022-10-31T12:12:50.029Z,11.8
2022-10-31T12:14:50.467Z,10.3
2022-10-31T12:16:50.256Z,10.4
2022-10-31T12:18:49.658Z,8.5
2022-10-31T12:20:50.192Z,11.0
2022-10-31T12:22:49.573Z,11.0
2022-10-31T12:24:49.941Z,9.4
2022-10-31T12:26:49.754Z,10.5
2022-10-31T12:28:55.084Z,9.9
2022-10-31T12:30:50.007Z,9.9
2022-10-31T12:32:50.291Z,9.8
2022-10-31T12:34:50.419Z,12.6
2022-10-31T12:36:50.181Z,9.2
2022-10-31T12:38:49.569Z,10.3
2022-10-31T12:40:49.959Z,10.3
2022-10-31T12:42:50.259Z,12.3
2022-10-31T12:44:49.588Z,14.1
2022-10-31T12:46:50.326Z,8.8
2022-10-31T12:48:52.702Z,8.8
2022-10-31T12:50:49.576Z,9.0
2022-10-31T12:52:50.166Z,8.8
2022-10-31T12:54:50.472Z,8.8
2022-10-31T12:56:49.990Z,10.4
2022-10-31T12:58:50.446Z,10.4
2022-10-31T13:00:49.991Z,8.5
2022-10-31T13:02:49.633Z,8.5
2022-10-31T13:04:49.533Z,8.5
2022-10-31T13:06:50.082Z,9.7
2022-10-31T13:08:50.461Z,9.7
2022-10-31T13:10:50.039Z,12.1
2022-10-31T13:12:50.140Z,12.1
2022-10-31T13:14:49.614Z,9.7
2022-10-31T13:16:49.543Z,11.9
2022-10-31T13:18:49.980Z,8.8
2022-10-31T13:20:53.048Z,8.8
2022-10-31T13:22:50.327Z,12.1
2022-10-31T13:24:49.751Z,11.9
2022-10-31T13:26:50.476Z,11.5
2022-10-31T13:30:50.244Z,9.6
2022-10-31T13:32:49.672Z,7.2
2022-10-31T13:34:50.501Z,10.5
2022-10-31T13:36:50.183Z,12.1
2022-10-31T13:38:50.532Z,12.1
2022-10-31T13:40:49.939Z,11.1
2022-10-31T13:42:50.444Z,13.7
2022-10-31T13:44:49.939Z,11.3
2022-10-31T13:46:49.589Z,8.7
2022-10-31T13:48:50.129Z,8.7
2022-10-31T13:50:49.768Z,11.6
2022-10-31T13:52:50.265Z,10.2
2022-10-31T13:54:49.670Z,10.4
2022-10-31T13:56:50.269Z,13.0
2022-10-31T13:58:49.789Z,10.7
2022-10-31T14:00:50.191Z,10.7
2022-10-31T14:02:49.782Z,14.8
2022-10-31T14:04:49.878Z,11.1
2022-10-31T14:06:50.498Z,11.1
2022-10-31T14:08:50.176Z,14.7
2022-10-31T14:10:49.704Z,14.7
2022-10-31T14:12:50.472Z,12.4
2022-10-31T14:14:49.971Z,14.9
2022-10-31T14:16:52.098Z,14.9
2022-10-31T14:18:50.062Z,14.7
2022-10-31T14:20:50.517Z,14.7
2022-10-31T14:22:49.967Z,13.6
2022-10-31T14:24:49.791Z,13.1
2022-10-31T14:26:49.612Z,13.3
2022-10-31T14:28:49.975Z,13.3
2022-10-31T14:30:50.405Z,14.7
2022-10-31T14:32:49.716Z,13.6
2022-10-31T14:34:50.488Z,12.0
2022-10-31T14:36:50.222Z,12.0
2022-10-31T14:38:49.598Z,12.0
2022-10-31T14:42:50.310Z,14.2
2022-10-31T14:44:49.705Z,16.3
2022-10-31T14:46:50.441Z,16.3
2022-10-31T14:48:49.766Z,15.8
2022-10-31T14:50:50.092Z,15.5
2022-10-31T14:52:50.362Z,15.2
2022-10-31T14:54:49.737Z,15.2
2022-10-31T14:56:49.594Z,18.2
2022-10-31T14:58:50.103Z,14.4
2022-10-31T15:00:50.512Z,16.6
2022-10-31T15:02:50.073Z,15.0
2022-10-31T15:04:49.741Z,15.0
2022-10-31T15:06:50.438Z,14.7
2022-10-31T15:08:50.013Z,14.7
2022-10-31T15:10:50.306Z,13.3
2022-10-31T15:12:49.719Z,17.1
2022-10-31T15:14:50.176Z,17.1
2022-10-31T15:16:50.003Z,12.9
2022-10-31T15:18:50.345Z,12.9
2022-10-31T15:20:49.710Z,12.9
2022-10-31T15:22:50.005Z,17.6
2022-10-31T15:24:50.457Z,19.4
2022-10-31T15:26:50.147Z,19.4
2022-10-31T15:28:50.463Z,17.0
2022-10-31T15:30:50.050Z,17.7
2022-10-31T15:32:57.327Z,17.7
2022-10-31T15:34:50.221Z,13.5
2022-10-31T15:36:49.965Z,13.5
2022-10-31T15:38:50.331Z,13.6
2022-10-31T15:40:49.883Z,15.3
2022-10-31T15:42:50.251Z,17.1
2022-10-31T15:44:49.672Z,17.1
2022-10-31T15:46:50.569Z,13.8
2022-10-31T15:48:49.901Z,17.5
2022-10-31T15:50:50.375Z,14.2
2022-10-31T15:52:50.080Z,14.2
2022-10-31T15:54:50.352Z,14.7
2022-10-31T15:56:50.180Z,16.3
2022-10-31T15:58:49.534Z,15.0
2022-10-31T16:00:49.926Z,14.6
2022-10-31T16:02:49.595Z,14.6
2022-10-31T16:04:50.414Z,17.1
2022-10-31T16:06:50.154Z,15.7
2022-10-31T16:08:49.648Z,15.7
2022-10-31T16:10:49.982Z,20.6
2022-10-31T16:12:50.509Z,20.6
2022-10-31T16:14:49.888Z,17.9
2022-10-31T16:16:49.563Z,17.9
2022-10-31T16:18:50.034Z,21.4
2022-10-31T16:20:50.407Z,21.4
2022-10-31T16:22:49.933Z,18.7
2022-10-31T16:24:50.315Z,18.7
2022-10-31T16:26:50.023Z,20.3
2022-10-31T16:28:50.445Z,21.0
2022-10-31T16:30:49.807Z,23.3
2022-10-31T16:32:50.374Z,23.3
2022-10-31T16:34:50.438Z,20.6
2022-10-31T16:36:50.367Z,20.1
2022-10-31T16:38:49.734Z,21.9
2022-10-31T16:40:50.227Z,21.7
2022-10-31T16:42:49.682Z,21.7
2022-10-31T16:44:50.097Z,22.2
2022-10-31T16:46:49.814Z,24.5
2022-10-31T16:48:50.143Z,23.2
2022-10-31T16:50:49.601Z,25.5
2022-10-31T16:54:49.946Z,22.9
2022-10-31T16:56:49.712Z,23.5
2022-10-31T16:58:50.040Z,23.2
2022-10-31T17:00:50.501Z,23.2
2022-10-31T17:02:50.241Z,21.8
2022-10-31T17:04:52.137Z,20.5
2022-10-31T17:06:50.007Z,26.0
2022-10-31T17:08:49.609Z,26.0
2022-10-31T17:10:50.226Z,25.3
2022-10-31T17:12:49.631Z,28.6
2022-10-31T17:14:50.294Z,29.5
2022-10-31T17:16:50.088Z,30.0
2022-10-31T17:18:49.591Z,30.0
2022-10-31T17:20:49.933Z,28.1
2022-10-31T17:22:50.463Z,28.1
2022-10-31T17:24:49.963Z,29.7
2022-10-31T17:26:49.914Z,27.7
2022-10-31T17:28:50.297Z,29.4
2022-10-31T17:30:49.764Z,29.4
2022-10-31T17:32:50.317Z,33.9
2022-10-31T17:34:50.188Z,29.8
2022-10-31T17:36:49.954Z,29.8
2022-10-31T17:38:50.423Z,35.1
2022-10-31T17:40:49.874Z,35.1
2022-10-31T17:42:50.557Z,31.4
2022-10-31T17:44:50.103Z,32.4
2022-10-31T17:46:49.946Z,30.9
2022-10-31T17:48:50.511Z,30.9
2022-10-31T17:50:50.019Z,28.9
2022-10-31T17:52:49.706Z,30.0
2022-10-31T17:54:50.254Z,30.5
2022-10-31T17:56:50.188Z,33.3
2022-10-31T17:58:49.594Z,33.3
2022-10-31T18:00:50.573Z,30.6
2022-10-31T18:02:50.384Z,26.8
2022-10-31T18:04:50.429Z,30.5
2022-10-31T18:06:50.289Z,36.4
2022-10-31T18:08:49.825Z,36.4
2022-10-31T18:10:50.438Z,33.9
2022-10-31T18:12:49.989Z,35.7
2022-10-31T18:14:50.499Z,35.7
2022-10-31T18:16:50.318Z,37.3
2022-10-31T18:18:49.852Z,40.6
2022-10-31T18:20:50.461Z,40.6
2022-10-31T18:22:50.045Z,43.8
2022-10-31T18:24:49.613Z,38.9
2022-10-31T18:26:50.490Z,42.5
2022-10-31T18:28:49.994Z,42.5
2022-10-31T18:30:49.579Z,39.6
2022-10-31T18:32:50.091Z,43.5
2022-10-31T18:34:50.011Z,41.0
2022-10-31T18:36:49.951Z,36.0
2022-10-31T18:38:50.535Z,36.0
2022-10-31T18:40:50.029Z,34.9
2022-10-31T18:42:49.587Z,34.8
2022-10-31T18:44:49.962Z,35.5
2022-10-31T18:46:49.875Z,38.4
2022-10-31T18:48:50.302Z,38.4
2022-10-31T18:50:49.870Z,36.7
2022-10-31T18:52:50.422Z,32.6
2022-10-31T18:54:49.864Z,37.9
2022-10-31T18:56:49.703Z,37.9
2022-10-31T18:58:50.162Z,35.1
2022-10-31T19:00:49.716Z,35.1
2022-10-31T19:02:49.650Z,31.9
2022-10-31T19:04:49.687Z,31.9
2022-10-31T19:06:50.464Z,34.7
2022-10-31T19:08:50.011Z,36.8
2022-10-31T19:10:50.371Z,34.9
2022-10-31T19:12:49.825Z,30.2
2022-10-31T19:14:50.462Z,30.2
2022-10-31T19:16:51.964Z,33.9
2022-10-31T19:18:50.369Z,35.7
2022-10-31T19:20:49.973Z,32.8
2022-10-31T19:22:50.415Z,35.7
2022-10-31T19:24:49.854Z,35.7
2022-10-31T19:26:49.681Z,30.8
2022-10-31T19:28:50.184Z,30.8
2022-10-31T19:30:49.620Z,34.6
2022-10-31T19:32:50.170Z,30.9
2022-10-31T19:34:50.322Z,33.0
2022-10-31T19:36:50.316Z,28.5
2022-10-31T19:38:49.793Z,36.7
2022-10-31T19:40:50.394Z,36.3
2022-10-31T19:42:49.856Z,33.2
2022-10-31T19:44:50.393Z,33.2
2022-10-31T19:46:54.022Z,30.2
2022-10-31T19:48:49.881Z,32.7
2022-10-31T19:50:52.697Z,30.2
2022-10-31T19:52:50.001Z,30.2
2022-10-31T19:54:50.408Z,32.8
2022-10-31T19:56:50.377Z,32.4
2022-10-31T19:58:49.758Z,30.4
2022-10-31T20:00:50.159Z,31.0
2022-10-31T20:02:50.224Z,31.0
2022-10-31T20:04:50.283Z,26.0
2022-10-31T20:06:50.161Z,26.0
2022-10-31T20:08:49.586Z,24.5
2022-10-31T20:10:50.077Z,25.6
2022-10-31T20:12:50.448Z,25.6
2022-10-31T20:14:50.012Z,25.6
2022-10-31T20:16:49.988Z,26.1
2022-10-31T20:18:49.579Z,23.5
2022-10-31T20:20:50.432Z,27.4
2022-10-31T20:22:49.993Z,25.0
2022-10-31T20:24:50.504Z,25.0
2022-10-31T20:26:50.147Z,20.1
2022-10-31T20:28:49.645Z,21.7
2022-10-31T20:30:50.049Z,21.7
2022-10-31T20:32:50.175Z,28.4
2022-10-31T20:34:50.085Z,21.5
2022-10-31T20:36:49.981Z,23.9
2022-10-31T20:38:50.394Z,27.3
2022-10-31T20:40:49.894Z,27.3
2022-10-31T20:42:50.440Z,25.9
2022-10-31T20:44:49.990Z,27.0
2022-10-31T20:46:49.785Z,27.1
2022-10-31T20:48:50.283Z,28.5
2022-10-31T20:50:49.785Z,28.5
2022-10-31T20:52:50.375Z,31.6
2022-10-31T20:54:49.822Z,28.8
2022-10-31T20:56:49.708Z,25.1
2022-10-31T20:58:50.054Z,28.0
2022-10-31T21:00:50.505Z,28.0
2022-10-31T21:02:49.669Z,31.2
2022-10-31T21:04:49.627Z,31.2
2022-10-31T21:06:50.503Z,28.5
2022-10-31T21:08:50.071Z,28.5
2022-10-31T21:10:49.716Z,28.2
2022-10-31T21:12:50.101Z,26.0
2022-10-31T21:14:49.803Z,26.6
2022-10-31T21:16:49.651Z,25.1
2022-10-31T21:18:50.168Z,25.1
2022-10-31T21:20:49.567Z,29.2
2022-10-31T21:22:50.027Z,27.2
2022-10-31T21:24:50.484Z,25.4
2022-10-31T21:26:50.380Z,28.9
2022-10-31T21:28:49.943Z,30.5
2022-10-31T21:30:50.380Z,30.5
2022-10-31T21:32:49.931Z,27.5
2022-10-31T21:34:49.709Z,27.1
2022-10-31T21:36:50.502Z,29.3
2022-10-31T21:38:49.974Z,29.3
2022-10-31T21:40:50.440Z,29.3
2022-10-31T21:42:50.043Z,27.6
2022-10-31T21:44:49.588Z,27.1
2022-10-31T21:46:50.377Z,24.7
2022-10-31T21:48:49.942Z,24.7
2022-10-31T21:50:50.363Z,27.6
2022-10-31T21:52:50.057Z,23.7
2022-10-31T21:54:50.525Z,23.7
2022-10-31T21:56:50.496Z,26.5
2022-10-31T21:58:49.905Z,26.5
2022-10-31T22:00:50.555Z,26.3
2022-10-31T22:02:50.496Z,22.5
2022-10-31T22:04:50.525Z,23.2
2022-10-31T22:06:49.655Z,23.2
2022-10-31T22:08:50.276Z,27.0
2022-10-31T22:10:49.860Z,22.1
2022-10-31T22:12:50.428Z,27.5
2022-10-31T22:14:49.885Z,27.4
2022-10-31T22:16:49.772Z,27.4
2022-10-31T22:18:50.194Z,24.9
2022-10-31T22:20:49.805Z,25.7
2022-10-31T22:22:50.571Z,34.7
2022-10-31T22:24:50.018Z,24.6
2022-10-31T22:26:49.875Z,24.6
2022-10-31T22:28:50.436Z,28.5
2022-10-31T22:30:49.935Z,23.1
2022-10-31T22:32:50.416Z,22.8
2022-10-31T22:34:50.353Z,23.5
2022-10-31T22:36:50.164Z,23.5
2022-10-31T22:38:49.587Z,22.4
2022-10-31T22:40:50.060Z,22.4
2022-10-31T22:42:49.574Z,21.5
2022-10-31T22:44:50.141Z,21.7
2022-10-31T22:46:49.968Z,21.7
2022-10-31T22:48:50.458Z,23.5
2022-10-31T22:50:49.969Z,24.0
2022-10-31T22:52:50.400Z,21.8
2022-10-31T22:54:50.156Z,18.5
2022-10-31T22:56:49.885Z,23.4
2022-10-31T22:58:50.462Z,23.4
2022-10-31T23:00:50.201Z,25.1
2022-10-31T23:02:49.997Z,22.8
2022-10-31T23:04:49.879Z,25.3
2022-10-31T23:06:49.813Z,25.3
2022-10-31T23:08:50.345Z,22.8
2022-10-31T23:10:49.873Z,24.0
2022-10-31T23:12:50.366Z,25.0
2022-10-31T23:14:49.880Z,25.0
2022-10-31T23:16:49.841Z,21.4
2022-10-31T23:18:50.681Z,23.7
2022-10-31T23:20:50.196Z,23.6
2022-10-31T23:22:49.608Z,24.8
2022-10-31T23:24:50.228Z,24.8
2022-10-31T23:26:49.987Z,24.0
2022-10-31T23:28:50.514Z,24.6
2022-10-31T23:30:50.037Z,23.6
2022-10-31T23:32:49.559Z,23.6
2022-10-31T23:34:50.495Z,23.6
2022-10-31T23:36:50.412Z,20.8
2022-10-31T23:38:49.804Z,19.8
2022-10-31T23:40:50.335Z,20.3
2022-10-31T23:42:49.772Z,20.3
2022-10-31T23:44:50.355Z,27.3
2022-10-31T23:46:50.228Z,21.5
2022-10-31T23:48:49.743Z,21.5
2022-10-31T23:50:50.210Z,22.2
2022-10-31T23:52:49.685Z,22.2
2022-10-31T23:54:50.137Z,20.9
2022-10-31T23:56:49.979Z,20.9
2022-10-31T23:58:50.359Z,23.5
